Time;durP1;ratioP1;P1;durP2;ratioP2;P2;SDS_P1;SDS_P2;PMS_P1;PMS_P2;Temp;Humidity;BMP_temperature;BMP_pressure;BME280_temperature;BME280_humidity;BME280_pressure;Samples;Min_cycle;Max_cycle;Signal;HPM_P1;HPM_P2
2023/01/30 00:00:53;;;;;;;35.60;21.30;;;4.50;99.90;;;;;;4985520;28;20026;-77
2023/01/30 00:03:20;;;;;;;34.33;21.50;;;4.50;99.90;;;;;;4968242;28;20514;-77
2023/01/30 00:05:46;;;;;;;40.58;23.85;;;4.50;99.90;;;;;;4993361;28;20146;-77
2023/01/30 00:08:12;;;;;;;36.90;22.80;;;4.60;99.90;;;;;;4981172;28;20500;-77
2023/01/30 00:10:37;;;;;;;38.92;23.98;;;4.60;99.90;;;;;;4974650;28;20031;-78
2023/01/30 00:13:03;;;;;;;41.35;24.02;;;4.60;99.90;;;;;;4976282;28;20031;-77
2023/01/30 00:15:29;;;;;;;37.20;22.35;;;4.70;99.90;;;;;;4979561;28;20134;-77
2023/01/30 00:17:54;;;;;;;35.00;21.77;;;4.70;99.90;;;;;;4980758;28;20387;-78
2023/01/30 00:20:20;;;;;;;36.10;22.00;;;4.70;99.90;;;;;;4979365;28;20034;-77
2023/01/30 00:22:45;;;;;;;38.38;22.38;;;4.70;99.90;;;;;;4975841;28;20030;-77
2023/01/30 00:25:11;;;;;;;34.05;21.13;;;4.70;99.90;;;;;;4979269;28;20041;-77
2023/01/30 00:27:37;;;;;;;33.42;19.80;;;4.70;99.90;;;;;;4980753;28;20129;-75
2023/01/30 00:30:04;;;;;;;40.95;24.80;;;4.70;99.90;;;;;;4983542;28;20113;-77
2023/01/30 00:32:30;;;;;;;41.17;26.10;;;4.80;99.90;;;;;;4979221;28;20031;-77
2023/01/30 00:34:56;;;;;;;40.50;25.67;;;4.80;99.90;;;;;;4989201;28;20105;-77
2023/01/30 00:37:22;;;;;;;45.42;26.48;;;4.90;99.90;;;;;;4970703;28;20126;-78
2023/01/30 00:39:48;;;;;;;44.55;27.20;;;4.90;99.90;;;;;;4965679;28;20033;-77
2023/01/30 00:47:44;;;;;;;45.83;28.92;;;5.00;99.90;;;;;;4979942;28;20022;-77
2023/01/30 00:50:10;;;;;;;41.42;26.80;;;5.10;99.90;;;;;;4997483;28;20356;-77
2023/01/30 00:52:35;;;;;;;39.50;25.83;;;5.10;99.90;;;;;;4980308;28;20658;-77
2023/01/30 00:55:01;;;;;;;37.13;24.45;;;5.20;99.90;;;;;;4982581;28;20034;-77
2023/01/30 00:57:27;;;;;;;42.67;26.10;;;5.20;99.90;;;;;;4985205;28;20034;-77
2023/01/30 00:59:53;;;;;;;47.40;27.85;;;5.20;99.90;;;;;;4969418;28;20109;-77
2023/01/30 01:02:19;;;;;;;48.80;28.75;;;5.30;99.90;;;;;;4990548;28;20117;-75
2023/01/30 01:04:45;;;;;;;54.17;31.40;;;5.30;99.90;;;;;;4999766;28;20054;-76
2023/01/30 01:07:14;;;;;;;49.97;31.30;;;5.40;99.90;;;;;;4986098;28;20482;-77
2023/01/30 01:09:40;;;;;;;41.25;27.60;;;5.50;99.90;;;;;;4973532;28;20033;-77
2023/01/30 01:12:07;;;;;;;51.42;31.85;;;5.40;99.90;;;;;;4987347;28;20635;-77
2023/01/30 01:14:33;;;;;;;47.30;28.58;;;5.50;99.90;;;;;;4973302;28;20034;-75
2023/01/30 01:16:59;;;;;;;48.10;30.58;;;5.50;99.90;;;;;;4970935;28;20061;-77
2023/01/30 01:19:25;;;;;;;45.28;28.80;;;5.50;99.90;;;;;;4975344;28;20026;-78
2023/01/30 01:21:51;;;;;;;49.72;30.58;;;5.50;99.90;;;;;;4975330;28;20037;-77
2023/01/30 01:24:17;;;;;;;52.10;31.17;;;5.60;99.90;;;;;;4973681;28;20026;-77
2023/01/30 01:26:43;;;;;;;52.17;31.00;;;5.60;99.90;;;;;;4986068;28;20049;-77
2023/01/30 01:29:15;;;;;;;42.90;27.40;;;5.60;99.90;;;;;;4991216;28;20033;-77
2023/01/30 01:31:42;;;;;;;42.15;27.92;;;5.60;99.90;;;;;;4981940;28;20081;-77
2023/01/30 01:34:08;;;;;;;42.28;28.13;;;5.60;99.90;;;;;;4998267;28;20132;-77
2023/01/30 01:36:33;;;;;;;44.63;29.00;;;5.70;99.90;;;;;;4999946;28;20118;-77
2023/01/30 01:38:59;;;;;;;41.85;27.55;;;5.60;99.90;;;;;;4980486;28;20026;-77
2023/01/30 01:41:25;;;;;;;42.83;27.63;;;5.60;99.90;;;;;;4999990;28;20026;-77
2023/01/30 01:44:10;;;;;;;46.88;29.08;;;5.70;99.90;;;;;;4989950;28;20053;-77
2023/01/30 01:46:44;;;;;;;49.03;28.13;;;5.80;99.90;;;;;;4989119;28;20032;-76
2023/01/30 01:49:21;;;;;;;42.55;30.17;;;5.80;99.90;;;;;;4980796;28;20053;-77
2023/01/30 01:52:02;;;;;;;50.30;31.08;;;5.80;99.90;;;;;;4970965;28;20054;-77
2023/01/30 01:54:37;;;;;;;34.45;24.70;;;5.90;99.90;;;;;;4983743;28;20042;-77
2023/01/30 01:57:10;;;;;;;39.40;24.60;;;5.80;99.90;;;;;;4997155;28;20472;-78
2023/01/30 01:59:48;;;;;;;44.72;28.95;;;5.80;99.90;;;;;;4989071;28;20058;-76
2023/01/30 02:02:16;;;;;;;46.50;29.00;;;5.80;99.90;;;;;;4970851;28;20077;-77
2023/01/30 02:05:01;;;;;;;49.83;30.70;;;5.80;99.90;;;;;;4988743;28;20357;-77
2023/01/30 02:07:32;;;;;;;41.50;27.27;;;5.80;99.90;;;;;;4962850;28;20037;-76
2023/01/30 02:09:59;;;;;;;51.42;32.58;;;5.80;99.90;;;;;;4986384;28;20026;-76
2023/01/30 02:12:25;;;;;;;47.78;31.27;;;5.90;99.90;;;;;;4982413;28;20034;-77
2023/01/30 02:14:53;;;;;;;45.58;28.35;;;5.90;99.90;;;;;;4987550;28;20459;-77
2023/01/30 02:17:19;;;;;;;40.90;28.45;;;5.90;99.90;;;;;;4994780;28;20030;-77
2023/01/30 02:19:48;;;;;;;38.88;26.77;;;5.90;99.90;;;;;;4972166;28;20454;-77
2023/01/30 02:22:43;;;;;;;41.55;27.05;;;5.80;99.90;;;;;;4982145;28;20034;-77
2023/01/30 02:25:40;;;;;;;45.08;28.60;;;5.90;99.90;;;;;;4967342;28;20409;-77
2023/01/30 02:28:21;;;;;;;45.65;29.50;;;5.90;99.90;;;;;;4953046;28;20129;-76
2023/01/30 02:31:19;;;;;;;49.70;30.63;;;5.90;99.90;;;;;;4985318;28;20031;-77
2023/01/30 02:34:20;;;;;;;46.97;31.10;;;6.00;99.90;;;;;;4980839;28;20038;-77
2023/01/30 02:37:00;;;;;;;37.65;25.27;;;6.00;99.90;;;;;;4968740;28;20343;-77
2023/01/30 02:39:47;;;;;;;;;;;6.00;99.90;;;;;;4969853;28;20026;-76
2023/01/30 02:42:28;;;;;;;42.85;27.70;;;6.00;99.90;;;;;;4967592;28;20377;-77
2023/01/30 02:45:29;;;;;;;37.15;24.70;;;6.00;99.90;;;;;;4990127;28;20022;-76
2023/01/30 02:48:05;;;;;;;42.53;28.02;;;6.00;99.90;;;;;;4985302;28;20414;-77
2023/01/30 02:50:36;;;;;;;44.80;27.70;;;6.00;99.90;;;;;;4977520;28;20088;-76
2023/01/30 02:53:05;;;;;;;40.55;25.67;;;6.00;99.90;;;;;;4987061;28;20034;-77
2023/01/30 02:55:32;;;;;;;39.10;27.20;;;5.90;99.90;;;;;;4967464;28;20076;-77
2023/01/30 02:57:58;;;;;;;35.50;24.60;;;6.00;99.90;;;;;;4978661;28;20117;-77
2023/01/30 03:00:53;;;;;;;37.38;24.30;;;5.90;99.90;;;;;;4973789;28;20034;-77
2023/01/30 03:03:33;;;;;;;38.25;25.88;;;5.90;99.90;;;;;;4966356;28;20037;-76
2023/01/30 03:06:28;;;;;;;37.30;24.75;;;5.90;99.90;;;;;;4976536;28;20035;-76
2023/01/30 03:09:05;;;;;;;43.17;27.55;;;5.90;99.90;;;;;;4979748;28;20042;-77
2023/01/30 03:11:50;;;;;;;43.90;29.58;;;5.90;99.90;;;;;;4996443;28;20018;-77
2023/01/30 03:14:24;;;;;;;39.55;26.77;;;5.90;99.90;;;;;;4977760;28;20046;-77
2023/01/30 03:16:52;;;;;;;43.88;29.05;;;5.90;99.90;;;;;;4985986;28;20026;-77
2023/01/30 03:19:19;;;;;;;38.50;27.30;;;5.80;99.90;;;;;;4997128;28;20553;-77
2023/01/30 03:21:46;;;;;;;42.55;27.98;;;5.90;99.90;;;;;;4965209;28;20445;-76
2023/01/30 03:24:13;;;;;;;41.35;27.63;;;5.80;99.90;;;;;;4985136;28;20041;-77
2023/01/30 03:27:02;;;;;;;35.83;24.08;;;5.80;99.90;;;;;;4970675;28;20052;-77
2023/01/30 03:29:28;;;;;;;30.95;22.00;;;5.80;99.90;;;;;;4998536;28;20022;-76
2023/01/30 03:31:54;;;;;;;42.38;25.92;;;5.90;99.90;;;;;;4998226;28;20041;-75
2023/01/30 03:34:19;;;;;;;37.30;25.20;;;6.00;99.90;;;;;;4978758;28;20035;-76
2023/01/30 03:36:46;;;;;;;36.08;23.90;;;6.00;99.90;;;;;;4980013;28;20056;-75
2023/01/30 03:39:12;;;;;;;39.08;24.70;;;6.00;99.90;;;;;;4988145;28;20040;-76
2023/01/30 03:41:38;;;;;;;33.53;23.83;;;6.10;99.90;;;;;;4987134;28;20023;-76
2023/01/30 03:44:04;;;;;;;31.83;22.95;;;6.10;99.90;;;;;;4970312;28;20117;-76
2023/01/30 03:46:30;;;;;;;33.67;20.70;;;6.10;99.90;;;;;;4984884;28;20416;-76
2023/01/30 03:48:56;;;;;;;27.25;16.88;;;6.10;99.90;;;;;;4962704;28;20104;-76
2023/01/30 03:51:22;;;;;;;28.73;18.08;;;6.20;99.90;;;;;;4982705;28;20319;-75
2023/01/30 03:53:48;;;;;;;26.92;15.80;;;6.30;99.90;;;;;;4984092;28;20120;-75
2023/01/30 03:56:13;;;;;;;23.02;13.93;;;6.30;99.90;;;;;;4972424;28;20022;-75
2023/01/30 03:58:39;;;;;;;17.30;12.43;;;6.30;99.90;;;;;;4972571;28;20038;-76
2023/01/30 04:01:15;;;;;;;18.08;11.93;;;6.30;99.90;;;;;;4981942;28;20030;-76
2023/01/30 04:03:40;;;;;;;18.67;12.55;;;6.40;99.90;;;;;;4997621;28;20892;-75
2023/01/30 04:06:07;;;;;;;18.10;11.10;;;6.40;99.90;;;;;;4988244;28;20034;-75
2023/01/30 04:08:32;;;;;;;17.55;12.73;;;6.30;99.90;;;;;;4997406;28;20106;-76
2023/01/30 04:10:58;;;;;;;16.33;11.48;;;6.40;99.90;;;;;;4985479;28;20030;-76
2023/01/30 04:13:24;;;;;;;19.02;12.13;;;6.40;99.90;;;;;;4986167;28;20034;-76
2023/01/30 04:15:50;;;;;;;14.00;10.43;;;6.40;99.90;;;;;;4986188;28;20548;-76
2023/01/30 04:18:39;;;;;;;16.55;11.65;;;6.30;99.90;;;;;;4994133;28;20030;-75
2023/01/30 04:21:12;;;;;;;19.42;12.43;;;6.40;99.90;;;;;;4984636;28;20087;-76
2023/01/30 04:23:38;;;;;;;20.13;12.40;;;6.40;99.90;;;;;;4987370;28;20084;-76
2023/01/30 04:26:07;;;;;;;22.58;13.40;;;6.40;99.90;;;;;;4985569;28;20029;-76
2023/01/30 04:28:36;;;;;;;18.38;12.00;;;6.50;99.90;;;;;;4985743;28;20095;-77
2023/01/30 04:31:03;;;;;;;21.77;13.15;;;6.50;99.90;;;;;;4984837;28;20029;-75
2023/01/30 04:33:41;;;;;;;20.85;12.88;;;6.60;99.90;;;;;;4984388;28;20029;-76
2023/01/30 04:36:09;;;;;;;20.75;11.98;;;6.60;99.90;;;;;;4980982;28;20053;-75
2023/01/30 04:38:36;;;;;;;16.33;11.75;;;6.60;99.90;;;;;;4967379;28;20034;-75
2023/01/30 04:41:03;;;;;;;18.67;12.35;;;6.60;99.90;;;;;;4969378;28;20077;-76
2023/01/30 04:43:32;;;;;;;25.10;13.20;;;6.70;99.90;;;;;;4974994;28;20021;-76
2023/01/30 04:46:36;;;;;;;19.38;12.02;;;6.70;99.90;;;;;;4977855;28;20029;-75
2023/01/30 04:49:02;;;;;;;21.80;12.10;;;6.60;99.90;;;;;;4969493;28;20034;-76
2023/01/30 04:51:28;;;;;;;19.27;11.85;;;6.70;99.90;;;;;;4986872;28;20030;-76
2023/01/30 04:53:53;;;;;;;22.95;11.55;;;6.70;99.90;;;;;;4988385;28;20181;-75
2023/01/30 04:56:19;;;;;;;22.40;10.15;;;6.70;99.90;;;;;;4967812;28;20029;-76
2023/01/30 04:58:47;;;;;;;20.15;10.90;;;6.70;99.90;;;;;;4974994;28;20032;-76
2023/01/30 05:01:34;;;;;;;23.48;12.00;;;6.70;99.90;;;;;;4994695;28;20632;-75
2023/01/30 05:04:00;;;;;;;18.98;10.82;;;6.70;99.90;;;;;;4991344;28;20474;-75
2023/01/30 05:06:27;;;;;;;17.40;9.95;;;6.70;99.90;;;;;;4984656;28;20407;-75
2023/01/30 05:08:54;;;;;;;17.92;10.48;;;6.70;99.90;;;;;;4997638;28;20077;-76
2023/01/30 05:11:22;;;;;;;19.23;9.80;;;6.70;99.90;;;;;;4991592;28;20119;-75
2023/01/30 05:13:47;;;;;;;19.08;9.90;;;6.70;99.90;;;;;;4990602;28;20034;-75
2023/01/30 05:16:14;;;;;;;20.80;9.50;;;6.80;99.90;;;;;;4973632;28;20026;-76
2023/01/30 05:18:41;;;;;;;19.48;9.20;;;6.70;99.90;;;;;;4998525;28;20033;-76
2023/01/30 05:21:13;;;;;;;15.38;7.78;;;6.80;99.90;;;;;;4967949;28;20070;-77
2023/01/30 05:23:39;;;;;;;18.27;7.78;;;6.70;99.90;;;;;;4981443;28;20118;-76
2023/01/30 05:26:05;;;;;;;12.90;6.43;;;6.80;99.90;;;;;;4996185;28;20101;-76
2023/01/30 05:28:31;;;;;;;16.02;6.03;;;6.80;99.90;;;;;;4997297;28;20065;-76
2023/01/30 05:31:05;;;;;;;17.00;5.82;;;6.90;99.90;;;;;;4983730;28;20026;-76
2023/01/30 05:33:31;;;;;;;12.68;5.60;;;6.90;99.90;;;;;;4981364;28;20125;-75
2023/01/30 05:35:58;;;;;;;19.38;5.25;;;6.90;99.90;;;;;;4999974;28;20153;-75
2023/01/30 05:38:24;;;;;;;15.13;5.30;;;6.90;99.90;;;;;;4998326;28;20030;-76
2023/01/30 05:41:04;;;;;;;14.65;4.28;;;6.90;99.90;;;;;;4985763;28;20032;-76
2023/01/30 05:43:31;;;;;;;17.58;4.93;;;7.00;99.90;;;;;;4976616;28;20490;-75
2023/01/30 05:45:58;;;;;;;11.65;4.30;;;7.00;99.90;;;;;;4982455;28;20097;-76
2023/01/30 05:48:24;;;;;;;15.85;3.80;;;7.00;99.90;;;;;;4996693;28;20480;-75
2023/01/30 05:50:51;;;;;;;12.80;3.83;;;7.00;99.90;;;;;;5001968;28;20026;-75
2023/01/30 05:53:18;;;;;;;20.17;4.65;;;6.90;99.90;;;;;;4988997;28;20057;-75
2023/01/30 05:55:43;;;;;;;11.02;3.28;;;7.00;99.90;;;;;;4999245;28;20037;-76
2023/01/30 05:58:10;;;;;;;13.68;3.63;;;7.00;99.90;;;;;;4997336;28;20030;-75
2023/01/30 06:00:35;;;;;;;9.07;3.13;;;7.00;99.90;;;;;;5001718;28;20057;-76
2023/01/30 06:03:01;;;;;;;14.95;3.22;;;7.00;99.90;;;;;;4997506;28;20022;-76
2023/01/30 06:05:27;;;;;;;14.95;3.25;;;6.90;99.90;;;;;;4976666;28;20465;-76
2023/01/30 06:07:53;;;;;;;9.88;3.08;;;7.00;99.90;;;;;;5000166;28;20475;-77
2023/01/30 06:10:18;;;;;;;11.32;2.45;;;7.00;99.90;;;;;;4989248;28;20026;-75
2023/01/30 06:12:44;;;;;;;10.95;2.28;;;6.90;99.90;;;;;;4988038;28;20037;-76
2023/01/30 06:15:10;;;;;;;10.10;2.15;;;7.00;99.90;;;;;;4981437;28;20038;-75
2023/01/30 06:17:36;;;;;;;15.15;2.80;;;7.00;99.90;;;;;;4984524;28;20037;-75
2023/01/30 06:20:02;;;;;;;10.07;1.08;;;6.90;99.90;;;;;;4981101;28;20034;-76
2023/01/30 06:22:28;;;;;;;9.65;1.33;;;6.80;99.90;;;;;;4986088;28;20031;-77
2023/01/30 06:24:54;;;;;;;7.50;1.10;;;6.80;99.90;;;;;;4971714;28;20037;-76
2023/01/30 06:27:19;;;;;;;11.27;1.27;;;6.70;99.90;;;;;;4988615;28;20533;-76
2023/01/30 06:29:45;;;;;;;13.02;0.90;;;6.70;99.90;;;;;;4999937;28;20436;-76
2023/01/30 06:32:11;;;;;;;11.20;1.05;;;6.70;99.90;;;;;;4996906;28;20081;-76
2023/01/30 06:34:36;;;;;;;12.40;0.80;;;6.60;99.90;;;;;;5000250;28;20077;-76
2023/01/30 06:37:02;;;;;;;13.40;1.17;;;6.60;99.90;;;;;;4964917;28;20026;-75
2023/01/30 06:39:27;;;;;;;11.75;0.77;;;6.60;99.90;;;;;;4981639;28;20057;-76
2023/01/30 06:41:53;;;;;;;13.73;0.80;;;6.70;99.90;;;;;;4988789;28;20478;-76
2023/01/30 06:44:19;;;;;;;10.75;0.57;;;6.70;99.90;;;;;;4981247;28;20030;-76
2023/01/30 06:46:44;;;;;;;10.70;0.80;;;6.60;99.90;;;;;;4989492;28;20030;-77
2023/01/30 06:49:10;;;;;;;12.68;1.10;;;6.70;99.90;;;;;;4996687;28;20057;-76
2023/01/30 06:51:36;;;;;;;9.93;0.90;;;6.70;99.90;;;;;;4981502;28;20041;-76
2023/01/30 06:54:01;;;;;;;10.32;0.60;;;6.70;99.90;;;;;;4970690;28;20034;-76
2023/01/30 06:56:27;;;;;;;7.07;0.50;;;6.60;99.90;;;;;;4978944;28;21232;-76
2023/01/30 06:58:53;;;;;;;14.30;0.98;;;6.40;99.90;;;;;;4983700;28;20042;-76
2023/01/30 07:01:20;;;;;;;14.93;1.25;;;6.50;99.90;;;;;;4973285;28;20084;-76
2023/01/30 07:03:46;;;;;;;13.20;1.10;;;6.40;99.90;;;;;;4998944;28;20041;-76
2023/01/30 07:06:11;;;;;;;9.32;0.77;;;6.40;99.90;;;;;;4997642;28;20037;-77
2023/01/30 07:08:37;;;;;;;7.63;0.88;;;6.40;99.90;;;;;;4985112;28;20031;-76
2023/01/30 07:11:06;;;;;;;10.70;0.77;;;6.30;99.90;;;;;;4980405;28;20054;-76
2023/01/30 07:13:32;;;;;;;14.50;1.25;;;6.40;99.90;;;;;;4978796;28;20038;-75
2023/01/30 07:15:57;;;;;;;15.38;0.90;;;6.40;99.90;;;;;;4998698;28;20030;-76
2023/01/30 07:18:23;;;;;;;12.25;1.25;;;6.30;99.90;;;;;;4973328;28;20022;-77
2023/01/30 07:20:49;;;;;;;17.42;1.00;;;6.10;99.90;;;;;;4985348;28;20027;-76
2023/01/30 07:23:15;;;;;;;15.38;1.30;;;6.10;99.90;;;;;;4965717;28;20042;-76
2023/01/30 07:25:40;;;;;;;9.05;0.85;;;6.10;99.90;;;;;;4987323;28;20771;-76
2023/01/30 07:28:06;;;;;;;17.58;1.02;;;6.20;99.90;;;;;;4984902;28;20515;-77
2023/01/30 07:30:34;;;;;;;11.02;0.73;;;6.10;99.90;;;;;;4994259;28;20029;-76
2023/01/30 07:33:01;;;;;;;16.13;1.48;;;6.10;99.90;;;;;;4987747;28;20030;-76
2023/01/30 07:35:30;;;;;;;10.90;0.70;;;6.00;99.90;;;;;;4995209;28;20438;-76
2023/01/30 07:37:56;;;;;;;11.95;0.93;;;6.00;99.90;;;;;;4983788;28;20075;-77
2023/01/30 07:40:22;;;;;;;15.40;1.30;;;5.90;99.90;;;;;;4980474;28;20045;-76
2023/01/30 07:43:04;;;;;;;16.27;2.10;;;5.80;99.90;;;;;;4998814;28;20022;-75
2023/01/30 07:45:38;;;;;;;18.40;1.00;;;5.90;99.90;;;;;;4997663;28;20037;-76
2023/01/30 07:48:04;;;;;;;13.63;1.02;;;5.90;99.90;;;;;;4999594;28;20026;-77
2023/01/30 07:50:30;;;;;;;14.00;1.50;;;5.90;99.90;;;;;;5000799;28;20486;-77
2023/01/30 07:52:56;;;;;;;16.67;1.33;;;5.90;99.90;;;;;;4993343;28;20045;-78
2023/01/30 07:55:21;;;;;;;12.00;0.90;;;6.00;99.90;;;;;;4973745;28;20073;-76
2023/01/30 07:57:47;;;;;;;18.92;1.33;;;6.00;99.90;;;;;;4974435;28;20023;-75
2023/01/30 08:00:15;;;;;;;16.52;1.00;;;6.00;99.90;;;;;;4976125;28;20053;-76
2023/01/30 08:02:40;;;;;;;14.73;0.88;;;6.10;99.90;;;;;;4991533;28;20062;-76
2023/01/30 08:05:07;;;;;;;16.73;1.17;;;6.10;99.90;;;;;;4981522;28;20459;-75
2023/01/30 08:07:32;;;;;;;17.05;1.48;;;6.00;99.90;;;;;;4987551;28;20065;-76
2023/01/30 08:09:58;;;;;;;22.10;1.25;;;6.00;99.90;;;;;;4973289;28;20058;-76
2023/01/30 08:12:24;;;;;;;17.17;1.52;;;6.10;99.90;;;;;;4991549;28;20034;-77
2023/01/30 08:14:49;;;;;;;10.18;0.80;;;6.00;99.90;;;;;;4997952;28;20034;-75
2023/01/30 08:17:15;;;;;;;14.27;1.63;;;5.90;99.90;;;;;;4999618;28;20018;-77
2023/01/30 08:19:41;;;;;;;20.75;1.65;;;5.90;99.90;;;;;;4982523;28;20026;-77
2023/01/30 08:22:06;;;;;;;14.00;1.58;;;5.80;99.90;;;;;;4988443;28;20546;-77
2023/01/30 08:24:32;;;;;;;20.95;2.25;;;5.90;99.90;;;;;;4983009;28;20489;-77
2023/01/30 08:26:59;;;;;;;15.93;1.00;;;5.80;99.90;;;;;;4982421;28;20038;-77
2023/01/30 08:29:24;;;;;;;12.48;0.95;;;5.80;99.90;;;;;;4982034;28;20030;-76
2023/01/30 08:31:50;;;;;;;14.90;1.60;;;5.70;99.90;;;;;;4998780;28;20032;-77
2023/01/30 08:34:16;;;;;;;10.48;0.80;;;5.70;99.90;;;;;;4984429;28;20052;-75
2023/01/30 08:36:45;;;;;;;21.60;1.63;;;5.80;99.90;;;;;;4984580;28;20022;-76
2023/01/30 08:39:11;;;;;;;13.35;1.00;;;5.80;99.90;;;;;;4997102;28;20030;-76
2023/01/30 08:41:37;;;;;;;18.33;0.90;;;5.90;99.90;;;;;;4975448;28;20041;-76
2023/01/30 08:44:02;;;;;;;20.48;1.20;;;5.90;99.90;;;;;;4989639;28;20068;-76
2023/01/30 08:46:28;;;;;;;18.50;1.35;;;6.00;99.90;;;;;;4984559;28;20105;-77
2023/01/30 08:48:54;;;;;;;16.05;1.02;;;6.20;99.90;;;;;;4982272;28;20518;-77
2023/01/30 08:51:19;;;;;;;22.83;1.13;;;6.10;99.90;;;;;;4982092;28;20510;-77
2023/01/30 08:53:45;;;;;;;18.90;1.42;;;6.20;99.90;;;;;;4990347;28;20030;-76
2023/01/30 08:56:11;;;;;;;18.10;1.42;;;6.30;99.90;;;;;;4985185;28;20021;-76
2023/01/30 08:58:37;;;;;;;13.43;1.35;;;6.40;99.90;;;;;;4999416;28;20048;-76
2023/01/30 09:01:06;;;;;;;20.48;1.20;;;6.30;99.90;;;;;;4982142;28;20072;-77
2023/01/30 09:03:31;;;;;;;17.52;0.95;;;6.40;99.90;;;;;;4997884;28;20041;-76
2023/01/30 09:05:57;;;;;;;23.73;1.30;;;6.40;99.90;;;;;;4988381;28;20042;-77
2023/01/30 09:08:23;;;;;;;16.83;1.00;;;6.50;99.90;;;;;;4999024;28;20036;-77
2023/01/30 09:10:49;;;;;;;15.00;0.88;;;6.60;99.90;;;;;;4974775;28;20030;-77
2023/01/30 09:13:14;;;;;;;15.27;1.13;;;6.70;99.90;;;;;;4998611;28;20054;-76
2023/01/30 09:15:41;;;;;;;15.43;1.23;;;6.80;99.90;;;;;;4984939;28;20034;-76
2023/01/30 09:18:07;;;;;;;16.85;0.77;;;7.00;99.90;;;;;;4985524;28;20920;-76
2023/01/30 09:20:33;;;;;;;13.23;1.20;;;6.90;99.90;;;;;;4986214;28;20023;-76
2023/01/30 09:23:00;;;;;;;15.45;0.90;;;6.90;99.90;;;;;;4997694;28;20510;-77
2023/01/30 09:25:26;;;;;;;17.83;1.50;;;6.90;99.90;;;;;;4979946;28;20034;-77
2023/01/30 09:27:51;;;;;;;17.38;1.13;;;6.90;99.90;;;;;;4979659;28;20479;-77
2023/01/30 09:30:18;;;;;;;19.67;1.45;;;6.80;99.90;;;;;;4998172;28;20470;-76
2023/01/30 09:32:43;;;;;;;14.35;0.98;;;6.90;99.90;;;;;;4982756;28;20053;-75
2023/01/30 09:35:10;;;;;;;16.95;1.00;;;6.90;99.90;;;;;;4999636;28;20461;-76
2023/01/30 09:37:35;;;;;;;18.02;1.13;;;6.90;99.90;;;;;;4997209;28;20018;-77
2023/01/30 09:40:01;;;;;;;20.27;1.27;;;7.00;99.90;;;;;;4980787;28;20502;-75
2023/01/30 09:43:01;;;;;;;16.23;1.10;;;7.00;99.90;;;;;;4983796;28;20034;-76
2023/01/30 09:45:44;;;;;;;17.17;1.40;;;7.10;99.90;;;;;;4969841;28;20026;-76
2023/01/30 09:48:15;;;;;;;15.18;0.70;;;7.00;99.90;;;;;;4981737;28;20117;-76
2023/01/30 09:50:50;;;;;;;15.63;1.00;;;7.00;99.90;;;;;;4979864;28;20387;-76
2023/01/30 09:53:35;;;;;;;15.27;0.82;;;7.00;99.90;;;;;;4995241;28;20117;-76
2023/01/30 09:56:02;;;;;;;22.63;1.45;;;7.00;99.90;;;;;;4994454;28;20030;-76
2023/01/30 09:58:54;;;;;;;17.00;1.50;;;7.00;99.90;;;;;;4999731;28;20029;-76
2023/01/30 10:01:29;;;;;;;16.38;1.00;;;7.00;99.90;;;;;;4981566;28;20080;-76
2023/01/30 10:04:10;;;;;;;14.65;1.10;;;7.10;99.90;;;;;;4987676;28;20037;-76
2023/01/30 10:07:01;;;;;;;13.13;0.80;;;7.10;99.90;;;;;;4986445;28;20034;-76
2023/01/30 10:09:34;;;;;;;15.63;0.70;;;7.20;99.90;;;;;;4980182;28;20078;-76
2023/01/30 10:11:59;;;;;;;14.68;0.82;;;7.20;99.90;;;;;;4969328;28;20022;-77
2023/01/30 10:14:54;;;;;;;14.27;1.38;;;7.20;99.90;;;;;;4996444;28;20049;-76
2023/01/30 10:17:26;;;;;;;13.27;0.85;;;7.20;99.90;;;;;;4979965;28;20053;-77
2023/01/30 10:20:13;;;;;;;11.85;0.80;;;7.20;99.90;;;;;;4978527;28;20018;-76
2023/01/30 10:23:24;;;;;;;15.82;1.02;;;7.20;99.90;;;;;;4987268;28;20030;-76
2023/01/30 10:25:54;;;;;;;15.90;1.00;;;7.30;99.90;;;;;;4966022;28;20037;-76
2023/01/30 10:28:23;;;;;;;;;;;7.30;99.90;;;;;;4970872;28;20037;-76
2023/01/30 10:30:52;;;;;;;13.48;1.13;;;7.30;99.90;;;;;;4972291;28;19956;-76
2023/01/30 10:33:32;;;;;;;13.30;0.88;;;7.30;99.90;;;;;;4968349;28;20164;-77
2023/01/30 10:36:12;;;;;;;13.45;1.10;;;7.20;99.90;;;;;;4977369;28;20270;-77
2023/01/30 10:38:49;;;;;;;19.80;0.98;;;7.20;99.90;;;;;;4979344;28;20038;-76
2023/01/30 10:41:33;;;;;;;12.77;1.20;;;7.20;99.90;;;;;;4994748;28;20056;-76
2023/01/30 10:44:04;;;;;;;13.25;0.80;;;7.20;99.90;;;;;;4997937;28;20583;-76
2023/01/30 10:46:39;;;;;;;12.05;1.63;;;7.20;99.90;;;;;;4986395;28;20541;-77
2023/01/30 10:49:37;;;;;;;21.10;2.17;;;7.10;99.90;;;;;;4980618;28;20388;-76
2023/01/30 10:52:37;;;;;;;16.50;1.15;;;7.00;99.90;;;;;;4983929;28;20427;-77
2023/01/30 10:55:55;;;;;;;21.88;1.55;;;7.00;99.90;;;;;;4972147;28;20418;-76
2023/01/30 10:58:36;;;;;;;15.05;1.50;;;7.10;99.90;;;;;;4894369;29;20481;-75
2023/01/30 11:01:10;;;;;;;16.30;1.30;;;7.20;99.90;;;;;;4897973;29;20083;-76
2023/01/30 11:03:45;;;;;;;12.65;0.73;;;7.30;99.90;;;;;;4906619;29;20040;-77
2023/01/30 11:06:17;;;;;;;18.60;1.50;;;7.40;99.90;;;;;;4893519;29;20032;-76
2023/01/30 11:08:43;;;;;;;14.48;1.00;;;7.40;99.90;;;;;;4903116;29;20024;-77
2023/01/30 11:11:33;;;;;;;18.13;1.20;;;7.40;99.90;;;;;;4894623;29;20128;-77
2023/01/30 11:14:04;;;;;;;13.00;0.95;;;7.40;99.90;;;;;;4886491;29;20043;-76
2023/01/30 11:16:32;;;;;;;14.85;0.98;;;7.40;99.90;;;;;;4913756;29;20040;-77
2023/01/30 11:19:03;;;;;;;14.48;0.82;;;7.50;99.90;;;;;;4919786;29;20043;-77
2023/01/30 11:21:30;;;;;;;13.90;0.90;;;7.50;99.90;;;;;;4917366;29;20032;-77
2023/01/30 11:24:02;;;;;;;12.88;1.17;;;7.70;99.90;;;;;;4894052;29;20426;-76
2023/01/30 11:26:35;;;;;;;12.07;1.60;;;7.80;99.90;;;;;;4909645;29;20039;-76
2023/01/30 11:29:26;;;;;;;17.63;1.30;;;7.80;99.90;;;;;;4939557;28;20042;-76
2023/01/30 11:31:52;;;;;;;16.48;1.05;;;8.00;99.90;;;;;;4983897;28;20099;-76
2023/01/30 11:34:20;;;;;;;12.93;1.25;;;7.90;99.90;;;;;;4980644;28;20324;-77
2023/01/30 11:36:46;;;;;;;17.67;1.70;;;7.90;99.90;;;;;;4989368;28;20026;-76
2023/01/30 11:39:17;;;;;;;18.73;1.05;;;7.80;99.90;;;;;;4970739;28;20036;-76
2023/01/30 11:41:54;;;;;;;;;;;7.90;99.90;;;;;;4964055;28;20592;-76
2023/01/30 11:44:46;;;;;;;14.95;1.05;;;8.10;99.90;;;;;;4997924;28;19914;-77
2023/01/30 11:47:22;;;;;;;16.48;1.52;;;8.20;99.90;;;;;;4978425;28;20034;-76
2023/01/30 11:49:51;;;;;;;17.92;0.90;;;8.20;99.90;;;;;;4967471;28;20050;-75
2023/01/30 11:52:30;;;;;;;14.40;1.60;;;8.00;99.90;;;;;;4997521;28;20034;-77
2023/01/30 11:55:07;;;;;;;12.55;0.95;;;8.20;99.90;;;;;;4982039;28;20053;-77
2023/01/30 11:57:46;;;;;;;16.40;1.00;;;8.30;99.90;;;;;;4985439;28;20077;-76
2023/01/30 12:00:23;;;;;;;14.40;1.25;;;8.30;99.90;;;;;;4988260;28;20061;-77
2023/01/30 12:02:53;;;;;;;9.02;0.60;;;8.30;99.90;;;;;;4968548;28;20529;-76
2023/01/30 12:05:30;;;;;;;13.48;1.17;;;8.20;99.90;;;;;;4994785;28;20471;-76
2023/01/30 12:08:19;;;;;;;23.38;2.10;;;8.20;99.90;;;;;;4979923;28;20027;-77
2023/01/30 12:10:57;;;;;;;13.18;2.50;;;8.10;99.90;;;;;;4988290;28;20113;-76
2023/01/30 12:13:38;;;;;;;20.58;3.95;;;8.10;99.90;;;;;;4994217;28;20057;-77
2023/01/30 12:16:10;;;;;;;19.90;2.55;;;8.10;99.90;;;;;;4981443;28;20038;-76
2023/01/30 12:18:47;;;;;;;34.83;9.70;;;8.00;99.90;;;;;;4968118;28;20029;-77
2023/01/30 12:21:26;;;;;;;26.30;6.28;;;8.00;99.90;;;;;;4996964;28;20077;-76
2023/01/30 12:24:04;;;;;;;53.85;14.80;;;8.10;99.90;;;;;;4983097;28;20056;-76
2023/01/30 12:27:05;;;;;;;41.13;12.07;;;8.10;99.90;;;;;;4963964;28;20030;-76
2023/01/30 12:29:41;;;;;;;16.88;2.53;;;8.10;99.90;;;;;;4968044;28;20038;-77
2023/01/30 12:32:17;;;;;;;23.63;2.38;;;8.10;99.90;;;;;;5001085;28;20111;-77
2023/01/30 12:34:44;;;;;;;24.33;3.70;;;8.10;99.90;;;;;;4988719;28;20125;-77
2023/01/30 12:37:40;;;;;;;28.58;4.85;;;8.10;99.90;;;;;;4993407;28;20060;-77
2023/01/30 12:40:36;;;;;;;46.20;9.15;;;8.00;99.90;;;;;;4983006;28;20042;-77
2023/01/30 12:43:19;;;;;;;35.28;6.82;;;8.00;99.90;;;;;;4981349;28;20030;-76
2023/01/30 12:45:54;;;;;;;42.55;7.95;;;8.10;99.90;;;;;;4982094;28;20029;-76
2023/01/30 12:48:47;;;;;;;75.65;20.55;;;8.00;99.90;;;;;;4980598;28;20038;-76
2023/01/30 12:51:31;;;;;;;38.17;12.10;;;8.00;99.90;;;;;;5001684;28;20480;-77
2023/01/30 12:54:29;;;;;;;28.40;6.32;;;8.00;99.90;;;;;;4968194;28;20061;-77
2023/01/30 12:57:26;;;;;;;15.27;2.60;;;8.00;99.90;;;;;;4982359;28;20112;-77
2023/01/30 13:00:07;;;;;;;15.32;1.85;;;8.10;99.90;;;;;;4983835;28;20483;-75
2023/01/30 13:02:49;;;;;;;18.88;1.92;;;8.10;99.90;;;;;;4985974;28;20454;-76
2023/01/30 13:05:48;;;;;;;18.17;1.42;;;8.10;99.90;;;;;;4998623;28;20460;-76
2023/01/30 13:08:34;;;;;;;13.93;1.35;;;8.10;99.90;;;;;;4984874;28;20149;-77
2023/01/30 13:11:36;;;;;;;17.42;1.27;;;8.10;99.90;;;;;;4986860;28;20086;-78